Time;durP1;ratioP1;P1;durP2;ratioP2;P2;SDS_P1;SDS_P2;PMS_P1;PMS_P2;Temp;Humidity;BMP_temperature;BMP_pressure;BME280_temperature;BME280_humidity;BME280_pressure;Samples;Min_cycle;Max_cycle;Signal;HPM_P1;HPM_P2
2022/04/26 03:36:22;;;;;;;;;;;;;;;9.50;80.52;99977.80;125205;1096;104280;-76
2022/04/26 03:38:52;;;;;;;;;;;;;;;9.54;80.88;99982.30;125178;1096;102883;-76
2022/04/26 03:41:22;;;;;;;;;;;;;;;9.55;80.95;99980.56;125243;1096;104243;-76
2022/04/26 03:43:52;;;;;;;;;;;;;;;9.55;81.06;99985.80;125196;1095;104227;-75
2022/04/26 03:46:22;;;;;;;;;;;;;;;9.55;80.86;99985.80;124892;1096;102765;-76
2022/04/26 03:48:52;;;;;;;;;;;;;;;9.54;81.24;99989.28;125228;1096;104158;-76
2022/04/26 03:51:22;;;;;;;;;;;;;;;9.56;81.58;99986.71;125210;1096;103600;-77
2022/04/26 03:53:52;;;;;;;;;;;;;;;9.58;81.21;99993.75;125261;1096;102832;-77
2022/04/26 03:56:22;;;;;;;;;;;;;;;9.61;81.84;100004.33;124925;1096;102215;-76
2022/04/26 03:58:51;;;;;;;;;;;;;;;9.64;81.16;100011.41;125321;1096;104160;-77
2022/04/26 04:01:22;;;;;;;;;;;;;;;9.67;81.98;100001.03;125382;1096;104177;-77
2022/04/26 04:03:52;;;;;;;;;;;;;;;9.72;81.02;100012.53;125257;1096;104175;-77
2022/04/26 04:06:21;;;;;;;;;;;;;;;9.76;82.18;100016.16;125244;1096;104353;-77
2022/04/26 04:08:51;;;;;;;;;;;;;;;9.81;82.24;100012.81;125260;1096;104169;-77
2022/04/26 04:11:21;;;;;;;;;;;;;;;9.84;82.21;100017.27;125264;1096;104652;-76
2022/04/26 04:13:51;;;;;;;;;;;;;;;9.88;81.73;100019.16;125364;1096;104351;-77
2022/04/26 04:16:21;;;;;;;;;;;;;;;9.92;81.42;100022.75;125253;1095;102155;-76
2022/04/26 04:21:40;;;;;;;;;;;;;;;10.01;81.78;100023.91;125174;1096;102928;-77
2022/04/26 04:24:10;;;;;;;;;;;;;;;10.05;82.54;100020.55;125333;1095;104208;-77
2022/04/26 04:26:40;;;;;;;;;;;;;;;10.11;81.66;100024.19;125326;1096;104355;-77
2022/04/26 04:29:10;;;;;;;;;;;;;;;10.14;81.69;100026.91;125267;1095;104197;-77
2022/04/26 04:31:40;;;;;;;;;;;;;;;10.16;82.31;100026.12;125268;1096;104156;-77
2022/04/26 04:34:10;;;;;;;;;;;;;;;10.20;82.23;100032.33;125275;1096;104157;-77
2022/04/26 04:36:40;;;;;;;;;;;;;;;10.23;82.13;100032.42;125360;1096;104252;-76
2022/04/26 04:39:10;;;;;;;;;;;;;;;10.29;81.93;100035.23;125241;1096;102439;-76
2022/04/26 04:41:40;;;;;;;;;;;;;;;10.33;82.02;100030.98;125273;1096;104255;-77
2022/04/26 04:44:10;;;;;;;;;;;;;;;10.36;81.99;100037.23;125313;1096;104201;-77
2022/04/26 04:46:40;;;;;;;;;;;;;;;10.38;81.99;100037.27;125356;1096;104264;-76
2022/04/26 04:49:11;;;;;;;;;;;;;;;10.40;82.28;100032.95;125334;1096;104219;-77
2022/04/26 04:51:41;;;;;;;;;;;;;;;10.44;82.35;100037.45;125331;1096;104240;-77
2022/04/26 04:54:11;;;;;;;;;;;;;;;10.50;82.20;100049.83;124973;1096;102067;-77
2022/04/26 04:56:42;;;;;;;;;;;;;;;10.54;82.32;100049.97;125167;1096;104806;-77
2022/04/26 04:59:14;;;;;;;;;;;;;;;10.62;82.10;100050.19;125262;1095;104268;-77
2022/04/26 05:01:45;;;;;;;;;;;;;;;10.70;82.37;100046.03;125293;1096;104221;-77
2022/04/26 05:04:16;;;;;;;;;;;;;;;10.78;83.06;100054.12;125326;1096;104153;-77
2022/04/26 05:06:47;;;;;;;;;;;;;;;10.81;82.30;100058.58;125328;1095;102469;-77
2022/04/26 05:09:17;;;;;;;;;;;;;;;10.86;82.17;100051.70;124824;1096;104271;-77
2022/04/26 05:11:51;;;;;;;;;;;;;;;10.91;82.01;100051.00;124930;1096;104274;-77
2022/04/26 05:14:21;;;;;;;;;;;;;;;11.00;82.14;100052.08;124822;1097;102435;-76
2022/04/26 05:16:52;;;;;;;;;;;;;;;11.04;82.87;100056.58;124791;1096;104997;-77
2022/04/26 05:19:23;;;;;;;;;;;;;;;11.19;82.74;100061.33;124873;1096;102810;-76
2022/04/26 05:21:56;;;;;;;;;;;;;;;11.29;82.18;100061.61;124870;1096;102339;-76
2022/04/26 05:27:24;;;;;;;;;;;;;;;11.49;83.06;100064.74;124580;1099;104299;-77
2022/04/26 05:29:54;;;;;;;;;;;;;;;11.55;82.39;100068.40;124919;1096;102883;-78
2022/04/26 05:32:29;;;;;;;;;;;;;;;11.60;82.27;100075.52;124990;1096;104210;-76
2022/04/26 05:35:00;;;;;;;;;;;;;;;11.69;82.47;100077.50;124882;1096;102349;-77
2022/04/26 05:37:33;;;;;;;;;;;;;;;11.78;82.27;100076.81;124938;1096;104352;-77
2022/04/26 05:40:04;;;;;;;;;;;;;;;11.84;82.47;100071.70;124943;1099;102418;-77
2022/04/26 05:42:37;;;;;;;;;;;;;;;11.94;82.47;100083.38;124898;1096;102107;-77
2022/04/26 05:45:08;;;;;;;;;;;;;;;11.99;82.53;100074.73;124853;1096;102023;-77
2022/04/26 05:47:43;;;;;;;;;;;;;;;12.05;82.19;100071.36;125285;1096;104195;-78
2022/04/26 05:50:50;;;;;;;;;;;;;;;12.19;82.20;100088.34;125454;1096;103584;-79
2022/04/26 05:53:21;;;;;;;;;;;;;;;12.33;82.36;100086.02;125439;1096;104156;-78
2022/04/26 05:55:52;;;;;;;;;;;;;;;12.46;82.16;100088.91;125500;1096;104368;-78
2022/04/26 05:58:25;;;;;;;;;;;;;;;12.54;82.08;100082.97;125650;1096;102473;-80
2022/04/26 06:00:59;;;;;;;;;;;;;;;12.62;81.85;100091.02;125506;1096;104175;-78
2022/04/26 06:03:45;;;;;;;;;;;;;;;12.72;82.11;100102.63;126042;1094;104316;-78
2022/04/26 06:06:18;;;;;;;;;;;;;;;12.80;81.62;100095.77;125439;1096;104245;-78
2022/04/26 06:08:59;;;;;;;;;;;;;;;12.87;81.45;100097.67;126379;1096;104174;-79
2022/04/26 06:11:33;;;;;;;;;;;;;;;12.96;81.15;100102.21;125837;1095;104195;-81
2022/04/26 06:14:11;;;;;;;;;;;;;;;13.07;81.31;100099.78;126182;1095;105432;-80
2022/04/26 06:16:44;;;;;;;;;;;;;;;13.16;81.05;100096.45;126096;1095;102589;-79
2022/04/26 06:22:20;;;;;;;;;;;;;;;13.36;80.83;100096.85;125479;1096;102733;-80
2022/04/26 06:24:52;;;;;;;;;;;;;;;13.48;81.31;100094.44;126098;1096;104245;-78
2022/04/26 06:27:26;;;;;;;;;;;;;;;13.58;81.01;100087.56;125421;1096;104251;-79
2022/04/26 06:30:04;;;;;;;;;;;;;;;13.76;81.00;100094.87;125083;1096;102673;-81
2022/04/26 06:32:38;;;;;;;;;;;;;;;13.88;79.31;100094.19;126215;1095;102477;-78
2022/04/26 06:35:12;;;;;;;;;;;;;;;13.95;80.31;100094.31;125375;1096;104211;-80
2022/04/26 06:37:43;;;;;;;;;;;;;;;14.07;80.42;100100.63;125422;1096;104190;-79
2022/04/26 06:40:13;;;;;;;;;;;;;;;14.19;79.99;100091.17;125396;1095;104195;-77
2022/04/26 06:44:09;;;;;;;11.70;4.90;;;;;;;0.46;58.71;77246256.00;124721;1102;104105;-77
2022/04/26 06:46:43;;;;;;;7.75;4.15;;;;;;;0.47;58.63;77228256.00;124368;1102;104163;-79
2022/04/26 06:49:17;;;;;;;9.70;4.30;;;;;;;0.47;58.61;77214256.00;124327;1102;102856;-77
2022/04/26 06:51:52;;;;;;;9.80;3.97;;;;;;;0.47;58.60;77194256.00;124312;1102;102722;-78
2022/04/26 06:54:24;;;;;;;10.28;5.12;;;;;;;0.47;58.61;77176256.00;125013;1102;104179;-79
2022/04/26 06:56:59;;;;;;;8.27;4.00;;;;;;;0.47;58.60;77156256.00;124936;1106;102774;-77
2022/04/26 06:59:33;;;;;;;9.30;4.30;;;;;;;0.47;58.56;77136264.00;125022;1102;104230;-77
2022/04/26 07:08:44;;;;;;;10.10;3.90;;;;;;;16.16;78.49;100102.95;125308;1102;102055;-77
2022/04/26 07:11:21;;;;;;;6.60;2.93;;;;;;;16.34;76.64;100109.23;124694;1102;104239;-79
2022/04/26 07:13:59;;;;;;;7.55;3.30;;;;;;;16.44;77.79;100105.77;124257;1106;102663;-78
2022/04/26 07:16:32;;;;;;;5.13;2.90;;;;;;;16.60;75.29;100098.78;124791;1102;103141;-78
2022/04/26 07:19:10;;;;;;;11.90;3.50;;;;;;;16.80;75.06;100098.00;124317;1102;104248;-79
2022/04/26 07:21:47;;;;;;;6.13;3.13;;;;;;;16.95;75.26;100113.95;125586;1105;102455;-78
2022/04/26 07:24:29;;;;;;;6.67;2.70;;;;;;;17.09;74.51;100108.70;125802;1105;101892;-79
2022/04/26 07:27:16;;;;;;;6.53;2.60;;;;;;;17.20;72.96;100109.64;125210;1103;117458;-78
2022/04/26 07:29:55;;;;;;;8.30;2.50;;;;;;;17.31;72.29;100104.36;124214;1105;104325;-78
2022/04/26 07:35:41;;;;;;;6.47;2.40;;;;;;;17.64;70.20;100109.67;124493;1109;104698;-79
2022/04/26 07:38:16;;;;;;;6.37;2.30;;;;;;;17.74;69.09;100116.77;124610;1105;104338;-78
2022/04/26 07:40:51;;;;;;;4.87;2.60;;;;;;;17.89;67.06;100115.93;125016;1105;102917;-78
2022/04/26 07:43:29;;;;;;;3.57;2.00;;;;;;;18.04;66.18;100123.86;124905;1105;104153;-79
2022/04/26 07:46:07;;;;;;;4.17;1.83;;;;;;;18.26;66.53;100123.83;124872;1105;104156;-79
2022/04/26 07:48:43;;;;;;;3.90;2.23;;;;;;;18.32;65.85;100124.73;124799;1106;103113;-78
2022/04/26 07:51:17;;;;;;;3.10;1.83;;;;;;;18.47;64.55;100125.57;124229;1106;104160;-79
2022/04/26 07:53:57;;;;;;;4.63;1.97;;;;;;;18.69;65.03;100131.70;124929;1101;104236;-79
2022/04/26 07:56:31;;;;;;;3.43;1.90;;;;;;;18.90;59.49;100125.46;124962;1102;104424;-80
2022/04/26 07:59:08;;;;;;;6.28;2.08;;;;;;;19.04;62.93;100128.02;124992;1102;102320;-79
2022/04/26 08:01:53;;;;;;;3.98;1.50;;;;;;;19.15;61.23;100120.00;124940;1102;103753;-80
2022/04/26 08:04:25;;;;;;;2.90;1.70;;;;;;;19.18;60.62;100126.20;125023;1106;102533;-79
2022/04/26 08:06:59;;;;;;;5.23;2.03;;;;;;;19.27;61.75;100122.59;125106;1102;104169;-76
2022/04/26 08:09:43;;;;;;;4.73;2.10;;;;;;;19.34;60.28;100131.44;124134;1102;108751;-77
2022/04/26 08:12:20;;;;;;;3.52;2.20;;;;;;;19.43;58.95;100125.16;125120;1102;104168;-78
2022/04/26 08:14:58;;;;;;;2.60;1.80;;;;;;;19.49;59.06;100120.66;124259;1102;102557;-77
2022/04/26 08:17:29;;;;;;;4.13;1.60;;;;;;;19.63;58.76;100123.23;124402;1102;104201;-76
2022/04/26 08:20:06;;;;;;;2.90;1.57;;;;;;;19.75;58.10;100119.60;124412;1102;104255;-77
2022/04/26 08:22:39;;;;;;;3.07;2.00;;;;;;;19.82;57.56;100123.12;124394;1102;102826;-77
2022/04/26 08:28:07;;;;;;;4.10;1.83;;;;;;;19.84;57.10;100127.55;124459;1102;104213;-78
2022/04/26 08:30:44;;;;;;;6.90;2.30;;;;;;;19.91;56.57;100120.38;124523;1102;104271;-78
2022/04/26 08:33:19;;;;;;;4.27;2.30;;;;;;;19.89;53.28;100125.72;124823;1102;102708;-78
2022/04/26 08:35:52;;;;;;;4.12;2.20;;;;;;;19.98;55.16;100135.42;124271;1105;101984;-78
2022/04/26 08:38:26;;;;;;;3.27;2.27;;;;;;;19.99;56.37;100131.87;124627;1102;102396;-79
2022/04/26 08:41:02;;;;;;;3.33;1.90;;;;;;;20.01;56.51;100134.52;124416;1102;103311;-78
2022/04/26 08:43:39;;;;;;;3.53;2.20;;;;;;;20.05;54.46;100131.78;124320;1102;104245;-78
2022/04/26 08:46:14;;;;;;;3.40;2.10;;;;;;;20.09;55.19;100133.53;124956;1102;104271;-78
2022/04/26 08:51:40;;;;;;;6.33;2.13;;;;;;;20.13;52.18;100145.03;124243;1102;104226;-81
2022/04/26 08:54:18;;;;;;;2.97;2.03;;;;;;;20.06;50.97;100146.88;125032;1102;104284;-79
2022/04/26 08:56:50;;;;;;;3.27;1.70;;;;;;;20.13;51.72;100141.50;124545;1102;102366;-79
2022/04/26 08:59:25;;;;;;;2.83;1.90;;;;;;;19.99;51.19;100144.28;124382;1102;104159;-79
2022/04/26 09:02:20;;;;;;;7.00;2.00;;;;;;;20.00;51.31;100138.94;124222;1102;104235;-78
2022/04/26 09:04:54;;;;;;;2.43;1.60;;;;;;;20.06;52.19;100138.89;124212;1102;104092;-79
2022/04/26 09:07:33;;;;;;;2.37;2.03;;;;;;;20.02;50.86;100139.80;124301;1102;104269;-78
2022/04/26 09:10:15;;;;;;;4.20;1.70;;;;;;;19.99;49.96;100144.28;124434;1102;104172;-79
2022/04/26 09:13:07;;;;;;;2.35;1.65;;;;;;;20.03;50.85;100144.24;124388;1102;103181;-79
2022/04/26 09:15:44;;;;;;;3.40;1.90;;;;;;;20.15;51.21;100147.69;124875;1102;104230;-77
2022/04/26 09:18:21;;;;;;;5.57;1.90;;;;;;;20.17;50.50;100146.78;124270;1102;102938;-78
2022/04/26 09:21:11;;;;;;;2.43;1.67;;;;;;;20.23;50.01;100144.06;124822;1102;107976;-78
2022/04/26 09:24:00;;;;;;;5.10;2.05;;;;;;;20.21;50.23;100134.30;124195;1102;102173;-78
2022/04/26 09:26:47;;;;;;;1.90;1.67;;;;;;;20.19;50.32;100133.45;124203;1102;102831;-78
2022/04/26 09:29:29;;;;;;;4.53;1.90;;;;;;;20.27;49.62;100142.24;124383;1102;102727;-79
2022/04/26 09:32:08;;;;;;;3.52;2.00;;;;;;;20.35;48.88;100136.84;124438;1102;104169;-77
2022/04/26 09:34:43;;;;;;;5.23;1.73;;;;;;;20.41;49.53;100143.02;124396;1102;104964;-77
2022/04/26 09:37:19;;;;;;;3.10;2.00;;;;;;;20.46;48.77;100149.16;124410;1102;104241;-77
2022/04/26 09:40:11;;;;;;;2.20;1.70;;;;;;;20.44;47.24;100158.97;124464;1102;102362;-78
2022/04/26 09:42:48;;;;;;;1.77;1.50;;;;;;;20.50;48.20;100144.67;124393;1102;104440;-76
2022/04/26 09:45:20;;;;;;;1.97;1.60;;;;;;;20.68;48.77;100153.39;124258;1102;104229;-77
2022/04/26 09:47:59;;;;;;;1.97;1.50;;;;;;;20.72;47.69;100156.01;124223;1102;102791;-77
2022/04/26 09:50:34;;;;;;;4.40;1.85;;;;;;;20.75;46.82;100147.10;124253;1105;104163;-78
2022/04/26 09:53:07;;;;;;;3.90;1.90;;;;;;;20.84;47.46;100154.99;124487;1102;104296;-77
2022/04/26 09:55:43;;;;;;;6.87;1.80;;;;;;;20.89;47.14;100149.61;124253;1102;102893;-78
2022/04/26 09:58:27;;;;;;;4.17;1.70;;;;;;;20.91;46.70;100151.36;124324;1102;102338;-78
2022/04/26 10:01:22;;;;;;;5.77;1.83;;;;;;;20.95;46.82;100138.86;124458;1102;102759;-76
2022/04/26 10:04:03;;;;;;;3.57;1.60;;;;;;;21.07;46.89;100152.05;124532;1102;102554;-77
2022/04/26 10:06:38;;;;;;;2.63;1.10;;;;;;;21.11;45.46;100148.41;124299;1105;104246;-77
2022/04/26 10:09:15;;;;;;;2.07;1.73;;;;;;;21.12;45.83;100150.19;124516;1102;104242;-77
2022/04/26 10:11:48;;;;;;;1.50;1.40;;;;;;;21.06;44.88;100150.27;124488;1102;104262;-77
2022/04/26 10:14:21;;;;;;;4.75;1.87;;;;;;;20.80;45.09;100146.16;124417;1102;102761;-78
2022/04/26 10:16:54;;;;;;;3.10;1.70;;;;;;;20.80;45.12;100151.49;124192;1103;102295;-77
2022/04/26 10:19:39;;;;;;;4.28;2.10;;;;;;;20.69;44.75;100150.71;124356;1105;104213;-77
2022/04/26 10:22:15;;;;;;;1.73;1.40;;;;;;;20.50;43.69;100154.47;124556;1102;104217;-77
2022/04/26 10:25:09;;;;;;;5.47;1.70;;;;;;;20.47;44.07;100156.27;124774;1102;102426;-77
2022/04/26 10:27:41;;;;;;;2.23;1.50;;;;;;;20.47;44.25;100160.70;124471;1102;102795;-76
2022/04/26 10:30:14;;;;;;;2.43;1.20;;;;;;;20.54;44.64;100154.41;124809;1102;104242;-77
2022/04/26 10:32:46;;;;;;;3.00;1.72;;;;;;;20.62;44.87;100149.00;124841;1102;117835;-78
2022/04/26 10:35:52;;;;;;;2.83;1.50;;;;;;;20.70;43.88;100163.16;124531;1103;104619;-78
2022/04/26 10:38:35;;;;;;;;;;;;;;;;;;;;;
2022/04/26 10:41:35;;;;;;;2.77;1.70;;;;;;;20.85;42.63;100161.20;124386;1103;104175;-77
2022/04/26 10:44:30;;;;;;;3.53;1.90;;;;;;;20.72;42.36;100161.34;124437;1105;102569;-78
2022/04/26 10:47:36;;;;;;;1.87;1.70;;;;;;;20.77;43.21;100170.19;124322;1101;104641;-78
2022/04/26 10:50:35;;;;;;;2.03;1.57;;;;;;;20.84;42.49;100176.33;124242;1102;104399;-76
2022/04/26 10:53:45;;;;;;;6.80;2.37;;;;;;;20.74;42.94;100172.89;124207;1102;104214;-77
2022/04/26 10:56:26;;;;;;;2.63;1.80;;;;;;;20.84;43.81;100168.33;124346;1103;104202;-76
2022/04/26 10:58:58;;;;;;;2.47;1.80;;;;;;;20.88;43.17;100170.06;124140;1105;104182;-76
2022/04/26 11:01:31;;;;;;;4.30;2.03;;;;;;;20.96;43.13;100164.64;124093;1106;103369;-75
2022/04/26 11:04:05;;;;;;;1.83;1.50;;;;;;;21.04;42.02;100167.22;124049;1103;104373;-76
2022/04/26 11:06:39;;;;;;;3.60;1.47;;;;;;;21.01;40.94;100173.46;124014;1105;104159;-76
2022/04/26 11:09:15;;;;;;;2.60;1.97;;;;;;;21.04;39.55;100180.55;124058;1105;104226;-77
2022/04/26 11:11:57;;;;;;;5.30;1.60;;;;;;;20.99;40.08;100170.81;124167;1105;104194;-77
2022/04/26 11:14:32;;;;;;;5.47;2.20;;;;;;;21.06;41.05;100166.27;124112;1105;102473;-77
2022/04/26 11:17:09;;;;;;;3.37;1.90;;;;;;;21.07;41.59;100172.52;124108;1105;104130;-76
2022/04/26 11:19:50;;;;;;;4.80;1.97;;;;;;;21.08;41.15;100185.80;124116;1105;104217;-76
2022/04/26 11:22:27;;;;;;;3.80;1.77;;;;;;;21.02;39.44;100183.23;124162;1105;104252;-77
2022/04/26 11:28:11;;;;;;;2.37;1.73;;;;;;;20.94;39.24;100174.42;124159;1105;104344;-76
2022/04/26 11:30:44;;;;;;;2.37;1.50;;;;;;;20.87;39.70;100180.75;124144;1102;104384;-76
2022/04/26 11:33:20;;;;;;;2.73;2.17;;;;;;;20.86;38.63;100170.98;124291;1102;104192;-76
2022/04/26 11:36:04;;;;;;;5.93;1.90;;;;;;;20.85;38.65;100164.77;124170;1102;104163;-76
2022/04/26 11:38:36;;;;;;;5.97;2.27;;;;;;;20.87;39.24;100176.29;124141;1102;102816;-76
2022/04/26 11:41:27;;;;;;;3.77;1.87;;;;;;;20.90;38.75;100170.05;124331;1102;104172;-77
2022/04/26 11:44:08;;;;;;;2.17;1.83;;;;;;;20.95;37.68;100178.87;124219;1102;104268;-76
2022/04/26 11:46:40;;;;;;;2.43;2.20;;;;;;;20.91;38.74;100170.03;124325;1102;104338;-76
2022/04/26 11:49:12;;;;;;;1.83;1.73;;;;;;;20.93;38.75;100167.34;124302;1102;102797;-75
2022/04/26 11:52:01;;;;;;;4.17;1.90;;;;;;;20.99;37.85;100162.81;124392;1101;104685;-76
2022/04/26 11:54:39;;;;;;;1.93;1.80;;;;;;;21.01;38.72;100174.33;124168;1102;118868;-77
2022/04/26 11:57:15;;;;;;;4.50;1.90;;;;;;;21.03;37.82;100166.31;124393;1102;104195;-77
2022/04/26 12:00:04;;;;;;;3.77;2.00;;;;;;;21.03;38.67;100165.44;124414;1102;104874;-77
2022/04/26 12:02:37;;;;;;;2.07;1.60;;;;;;;21.05;38.22;100169.86;124338;1102;101790;-78
2022/04/26 12:05:11;;;;;;;3.43;1.80;;;;;;;21.04;39.08;100160.08;124331;1102;104169;-77
2022/04/26 12:07:44;;;;;;;3.77;2.03;;;;;;;21.01;36.70;100179.66;124375;1102;104198;-79
2022/04/26 12:10:30;;;;;;;4.30;1.90;;;;;;;20.97;38.25;100163.72;124409;1102;104169;-79
2022/04/26 12:13:06;;;;;;;3.10;1.90;;;;;;;20.88;38.47;100170.06;124155;1102;104233;-77
2022/04/26 12:15:39;;;;;;;3.23;1.87;;;;;;;20.81;37.96;100171.03;124312;1102;102968;-76
2022/04/26 12:18:23;;;;;;;3.33;2.02;;;;;;;20.83;38.04;100170.13;124247;1102;102288;-77
2022/04/26 12:21:09;;;;;;;3.03;1.77;;;;;;;20.90;38.08;100162.05;124366;1102;104326;-77
2022/04/26 12:23:43;;;;;;;1.97;1.73;;;;;;;20.81;36.73;100171.90;124218;1102;102813;-76
2022/04/26 12:26:17;;;;;;;2.50;2.00;;;;;;;20.81;39.15;100177.23;124283;1102;102843;-78
2022/04/26 12:28:52;;;;;;;2.57;1.70;;;;;;;20.79;37.62;100157.72;124226;1105;104184;-76
2022/04/26 12:31:30;;;;;;;2.00;1.80;;;;;;;20.76;37.22;100155.08;124239;1105;104165;-77
2022/04/26 12:34:15;;;;;;;3.47;1.80;;;;;;;20.83;38.37;100164.79;124215;1102;104663;-77
2022/04/26 12:36:54;;;;;;;1.90;1.63;;;;;;;20.97;38.49;100153.05;124187;1103;102483;-78
2022/04/26 12:39:30;;;;;;;4.40;2.40;;;;;;;21.09;38.82;100142.22;124374;1102;104259;-77
2022/04/26 12:42:07;;;;;;;3.40;1.80;;;;;;;21.22;38.05;100158.07;124396;1102;102410;-78
2022/04/26 12:45:06;;;;;;;2.63;2.10;;;;;;;21.19;37.78;100151.88;124388;1103;104245;-79
2022/04/26 12:51:17;;;;;;;2.30;1.93;;;;;;;21.11;38.04;100156.41;124322;1105;102484;-79
2022/04/26 12:54:23;;;;;;;2.60;1.93;;;;;;;21.11;38.73;100148.41;123986;1105;104099;-79
2022/04/26 12:57:13;;;;;;;2.73;2.20;;;;;;;21.19;38.84;100154.55;124485;1105;104759;-79
2022/04/26 13:00:19;;;;;;;;;;;;;;;;;;;;;
2022/04/26 13:03:24;;;;;;;4.37;2.10;;;;;;;21.05;37.14;100150.29;124679;1105;102251;-79
2022/04/26 13:06:44;;;;;;;4.23;2.23;;;;;;;20.97;38.53;100153.05;124382;1109;103049;-78
2022/04/26 13:09:34;;;;;;;3.93;2.30;;;;;;;20.92;38.32;100149.57;124244;1109;102332;-79
2022/04/26 13:15:35;;;;;;;4.00;2.33;;;;;;;20.95;38.16;100160.20;124627;1105;102870;-78
2022/04/26 13:18:08;;;;;;;4.33;2.40;;;;;;;20.98;39.51;100165.50;123998;1108;102596;-78
2022/04/26 13:20:45;;;;;;;2.50;2.30;;;;;;;20.99;38.55;100154.81;123966;1108;103551;-78
2022/04/26 13:23:18;;;;;;;4.37;2.00;;;;;;;21.06;39.10;100154.73;124554;1102;102402;-76
2022/04/26 13:25:58;;;;;;;4.20;1.97;;;;;;;21.16;39.51;100162.59;124163;1102;104163;-77
2022/04/26 13:28:33;;;;;;;3.37;2.20;;;;;;;21.27;39.67;100158.87;124086;1102;104303;-77
2022/04/26 13:34:05;;;;;;;2.57;2.10;;;;;;;21.34;39.65;100166.78;124804;1102;104352;-78
2022/04/26 13:36:42;;;;;;;4.83;1.90;;;;;;;21.32;39.56;100167.73;124132;1102;104304;-76
2022/04/26 13:39:38;;;;;;;2.10;1.90;;;;;;;21.38;39.76;100164.97;124983;1100;104700;-77
2022/04/26 13:42:17;;;;;;;2.50;2.10;;;;;;;21.34;39.04;100160.57;125083;1102;102256;-79
2022/04/26 13:44:56;;;;;;;3.23;2.20;;;;;;;21.39;39.50;100157.84;124467;1099;104256;-78
2022/04/26 13:47:30;;;;;;;3.93;2.20;;;;;;;21.48;39.61;100158.58;124461;1099;104232;-78
2022/04/26 13:50:08;;;;;;;3.07;2.20;;;;;;;21.62;39.96;100157.54;124438;1102;102553;-79
2022/04/26 13:52:44;;;;;;;2.40;2.20;;;;;;;21.71;39.64;100165.41;124315;1100;102598;-77
2022/04/26 13:55:17;;;;;;;;;;;;;;;21.66;38.09;100160.14;124489;1099;104146;-78
2022/04/26 13:57:52;;;;;;;2.80;2.00;;;;;;;21.64;39.81;100161.06;124359;1099;104204;-78
2022/04/26 14:00:42;;;;;;;3.50;2.20;;;;;;;21.53;38.85;100164.79;124523;1100;102943;-75
2022/04/26 14:03:27;;;;;;;6.50;2.27;;;;;;;21.46;39.17;100163.07;124344;1099;104310;-76
2022/04/26 14:06:00;;;;;;;3.47;2.13;;;;;;;21.43;39.76;100162.24;124407;1101;102379;-77
2022/04/26 14:08:40;;;;;;;3.73;2.03;;;;;;;21.27;39.29;100158.87;124523;1099;104162;-76
2022/04/26 14:11:12;;;;;;;3.63;2.10;;;;;;;21.26;39.17;100170.48;124534;1102;103623;-77
2022/04/26 14:22:18;;;;;;;4.97;2.73;;;;;;;21.01;40.58;100162.79;124423;1101;104303;-78
2022/04/26 14:24:53;;;;;;;5.87;2.30;;;;;;;21.07;40.60;100164.52;124440;1102;104321;-79
2022/04/26 14:27:30;;;;;;;3.67;2.20;;;;;;;21.11;40.59;100161.75;124379;1102;102390;-78
2022/04/26 14:30:08;;;;;;;5.37;2.10;;;;;;;21.09;40.10;100160.03;124483;1099;102544;-77
2022/04/26 14:32:43;;;;;;;5.10;2.40;;;;;;;21.05;39.70;100164.53;124398;1102;104194;-77
2022/04/26 14:35:17;;;;;;;3.83;2.17;;;;;;;21.03;39.25;100163.64;124469;1099;104310;-78
2022/04/26 14:37:53;;;;;;;4.23;2.00;;;;;;;20.97;40.39;100161.95;124612;1102;104274;-80
2022/04/26 14:40:28;;;;;;;2.90;2.00;;;;;;;20.90;40.19;100170.05;124483;1099;103379;-79
2022/04/26 14:43:03;;;;;;;3.67;2.30;;;;;;;20.89;39.69;100168.27;124524;1102;104249;-79
2022/04/26 14:45:42;;;;;;;4.00;2.10;;;;;;;20.91;40.37;100164.70;124591;1099;104169;-79
2022/04/26 14:48:16;;;;;;;2.63;2.30;;;;;;;20.93;39.90;100164.68;124510;1099;102461;-79
2022/04/26 14:50:48;;;;;;;2.70;2.08;;;;;;;20.92;39.80;100169.11;124475;1102;104290;-78
2022/04/26 14:53:21;;;;;;;5.30;2.40;;;;;;;20.91;40.48;100171.80;124499;1102;104402;-79
2022/04/26 14:55:54;;;;;;;2.90;2.30;;;;;;;20.95;40.86;100165.53;124403;1099;102429;-78
2022/04/26 14:58:26;;;;;;;5.22;2.27;;;;;;;20.93;39.94;100165.55;124529;1102;102499;-79
2022/04/26 15:00:59;;;;;;;7.07;2.40;;;;;;;20.95;39.49;100177.08;124518;1100;102899;-78
2022/04/26 15:03:31;;;;;;;3.70;2.10;;;;;;;20.93;39.78;100170.02;124522;1100;104247;-81
2022/04/26 15:06:03;;;;;;;4.23;2.07;;;;;;;20.93;39.46;100172.68;124952;1099;102960;-79
2022/04/26 15:11:25;;;;;;;2.70;2.03;;;;;;;20.93;39.94;100176.22;124591;1100;104169;-79
2022/04/26 15:16:49;;;;;;;2.23;1.97;;;;;;;20.93;39.25;100180.68;124476;1099;102491;-77
2022/04/26 15:19:24;;;;;;;3.83;2.43;;;;;;;20.96;39.92;100180.64;124953;1099;102669;-79
2022/04/26 15:21:56;;;;;;;5.43;2.30;;;;;;;21.04;40.00;100181.42;124877;1099;104047;-78
2022/04/26 15:24:29;;;;;;;9.87;2.20;;;;;;;21.08;40.07;100183.13;124435;1102;104153;-80
2022/04/26 15:27:03;;;;;;;2.45;1.82;;;;;;;21.10;39.97;100176.02;124427;1102;104233;-77
2022/04/26 15:29:35;;;;;;;3.92;2.15;;;;;;;21.11;39.96;100176.88;124414;1099;104179;-77
2022/04/26 15:32:08;;;;;;;2.70;2.07;;;;;;;21.09;39.13;100178.70;124405;1099;104367;-77
2022/04/26 15:34:40;;;;;;;2.70;2.27;;;;;;;20.97;38.77;100179.72;124628;1099;103309;-77
2022/04/26 15:37:12;;;;;;;2.47;2.27;;;;;;;20.88;38.75;100185.16;124693;1099;102633;-77
2022/04/26 15:39:47;;;;;;;2.57;2.07;;;;;;;20.75;38.70;100187.09;125705;1099;104176;-79
2022/04/26 15:42:18;;;;;;;3.27;2.13;;;;;;;20.68;39.73;100196.05;124805;1099;104288;-77
2022/04/26 15:44:50;;;;;;;6.33;2.30;;;;;;;20.62;39.45;100195.19;124916;1099;104098;-77
2022/04/26 15:47:21;;;;;;;2.40;2.20;;;;;;;20.63;40.34;100207.63;124733;1099;103571;-77
2022/04/26 15:49:52;;;;;;;4.67;2.30;;;;;;;20.63;39.24;100198.73;124336;1099;104216;-77
2022/04/26 15:52:25;;;;;;;2.43;2.20;;;;;;;20.64;39.71;100208.50;124360;1099;102243;-77
2022/04/26 15:54:57;;;;;;;2.50;2.07;;;;;;;20.61;39.96;100197.88;124291;1099;102762;-77
2022/04/26 15:57:29;;;;;;;3.40;2.40;;;;;;;20.59;40.45;100207.67;124239;1102;104367;-77
2022/04/26 16:00:01;;;;;;;5.67;2.00;;;;;;;20.57;40.33;100207.69;124807;1099;104156;-76
2022/04/26 16:02:34;;;;;;;2.50;2.20;;;;;;;20.54;39.91;100206.84;124802;1098;104258;-77
2022/04/26 16:05:04;;;;;;;;;;;;;;;20.49;38.49;100204.23;124854;1099;104623;-77
2022/04/26 16:07:36;;;;;;;5.10;2.30;;;;;;;20.47;40.16;100212.23;124828;1099;102919;-76
2022/04/26 16:21:25;;;;;;;6.63;2.90;;;;;;;20.14;40.06;100225.84;124819;1099;104159;-76
2022/04/26 16:23:57;;;;;;;4.03;2.13;;;;;;;20.01;40.05;100220.61;124773;1099;102360;-77
2022/04/26 16:26:31;;;;;;;5.17;2.50;;;;;;;19.91;40.47;100229.55;124892;1099;104044;-76
2022/04/26 16:29:07;;;;;;;4.40;2.45;;;;;;;19.75;39.53;100221.62;124631;1099;104163;-76
2022/04/26 16:31:39;;;;;;;3.80;2.50;;;;;;;19.63;40.44;100228.81;124365;1099;104293;-76
2022/04/26 16:34:11;;;;;;;6.60;2.73;;;;;;;19.55;40.41;100234.17;124308;1099;104670;-76
2022/04/26 16:36:43;;;;;;;4.00;2.83;;;;;;;19.49;42.01;100242.19;124289;1099;104399;-77
2022/04/26 16:39:15;;;;;;;5.47;2.47;;;;;;;19.40;41.74;100243.14;124459;1099;104634;-78
2022/04/26 16:41:48;;;;;;;5.97;2.53;;;;;;;19.32;41.54;100256.47;124381;1102;104316;-76
2022/04/26 16:44:23;;;;;;;5.67;2.50;;;;;;;19.24;41.86;100252.94;124321;1102;102797;-77
2022/04/26 16:46:54;;;;;;;7.53;2.67;;;;;;;19.15;41.77;100252.97;124777;1098;104204;-76
2022/04/26 16:49:26;;;;;;;4.60;2.70;;;;;;;19.05;42.36;100262.76;124547;1099;104260;-77
2022/04/26 16:51:57;;;;;;;6.30;2.80;;;;;;;18.97;42.81;100270.75;124307;1099;102729;-77